Time;durP1;ratioP1;P1;durP2;ratioP2;P2;SDS_P1;SDS_P2;PMS_P1;PMS_P2;Temp;Humidity;BMP_temperature;BMP_pressure;BME280_temperature;BME280_humidity;BME280_pressure;Samples;Min_cycle;Max_cycle;Signal;HPM_P1;HPM_P2
2021/05/20 00:02:14;;;;;;;5.45;2.15;;;;;;;14.58;64.82;100088.34;5013889;28;20025;-73
2021/05/20 00:04:43;;;;;;;6.03;1.77;;;;;;;14.56;64.70;100078.75;5013827;28;20048;-73
2021/05/20 00:07:09;;;;;;;7.57;2.22;;;;;;;14.56;64.86;100073.94;5013858;28;20025;-74
2021/05/20 00:09:34;;;;;;;5.82;2.22;;;;;;;14.68;64.42;100082.00;5013649;28;20030;-73
2021/05/20 00:12:00;;;;;;;10.35;2.00;;;;;;;14.77;64.04;100086.44;5013581;28;20096;-73
2021/05/20 00:14:29;;;;;;;5.78;1.90;;;;;;;14.65;64.54;100084.81;5013728;28;20519;-73
2021/05/20 00:16:55;;;;;;;5.65;2.28;;;;;;;14.61;64.58;100075.56;5013990;28;20037;-73
2021/05/20 00:19:22;;;;;;;8.35;2.13;;;;;;;14.73;64.59;100085.63;5013584;28;20056;-73
2021/05/20 00:21:49;;;;;;;5.97;1.55;;;;;;;14.67;64.42;100068.41;5013581;28;20033;-73
2021/05/20 00:24:14;;;;;;;5.20;1.83;;;;;;;14.65;64.90;100068.00;5014567;28;20032;-73
2021/05/20 00:26:40;;;;;;;9.88;2.72;;;;;;;14.59;64.41;100047.94;5013293;28;20021;-73
2021/05/20 00:29:05;;;;;;;4.90;0.98;;;;;;;14.49;61.78;100050.69;5013422;28;20053;-72
2021/05/20 00:31:31;;;;;;;9.82;1.98;;;;;;;14.58;62.55;100048.34;5013099;28;20026;-73
2021/05/20 00:34:00;;;;;;;6.50;1.70;;;;;;;14.66;62.94;100045.19;5013201;28;20040;-73
2021/05/20 00:36:25;;;;;;;5.13;1.80;;;;;;;14.72;63.00;100044.81;5013204;28;20026;-73
2021/05/20 00:38:51;;;;;;;6.70;1.30;;;;;;;14.65;61.79;100038.00;5013422;28;20076;-73
2021/05/20 00:41:17;;;;;;;3.60;1.35;;;;;;;14.65;61.19;100038.00;5013130;28;20460;-73
2021/05/20 00:43:42;;;;;;;6.70;1.92;;;;;;;14.44;60.68;100032.28;5013132;28;20041;-73
2021/05/20 00:46:08;;;;;;;5.07;1.45;;;;;;;14.53;61.26;100029.94;5013004;28;20037;-74
2021/05/20 00:48:35;;;;;;;5.20;1.50;;;;;;;14.60;61.47;100023.59;5012779;28;20143;-73
2021/05/20 00:51:01;;;;;;;3.20;1.83;;;;;;;14.56;61.44;100025.56;5012916;28;20022;-72
2021/05/20 00:53:27;;;;;;;4.82;1.60;;;;;;;14.55;61.63;100044.34;5014594;28;20030;-73
2021/05/20 00:55:53;;;;;;;4.35;1.33;;;;;;;14.70;61.60;100044.41;5013970;28;20049;-72
2021/05/20 00:58:20;;;;;;;5.32;1.73;;;;;;;14.57;61.58;100036.34;5013237;28;20112;-73
2021/05/20 01:00:51;;;;;;;5.05;1.63;;;;;;;14.70;61.59;100034.03;5012817;28;20029;-72
2021/05/20 01:03:17;;;;;;;5.72;1.60;;;;;;;14.57;61.76;100036.34;5013078;28;20014;-73
2021/05/20 01:05:43;;;;;;;5.10;1.60;;;;;;;14.45;61.72;100033.09;5012989;28;20036;-72
2021/05/20 01:08:22;;;;;;;5.88;1.60;;;;;;;14.27;61.13;100035.75;5012428;28;20113;-72
2021/05/20 01:10:48;;;;;;;5.93;1.83;;;;;;;14.39;60.72;100022.25;5013009;28;20121;-72
2021/05/20 01:13:14;;;;;;;4.60;1.90;;;;;;;14.27;61.19;100027.38;5013814;28;20054;-72
2021/05/20 01:15:46;;;;;;;4.60;2.28;;;;;;;14.23;61.17;100026.56;5013143;28;20120;-72
2021/05/20 01:18:11;;;;;;;4.40;1.65;;;;;;;14.20;61.05;100027.34;5013157;28;20037;-72
2021/05/20 01:20:40;;;;;;;4.32;1.80;;;;;;;14.15;60.69;100023.72;5012796;28;20018;-72
2021/05/20 01:23:08;;;;;;;4.00;1.92;;;;;;;14.16;60.04;100030.91;5013170;28;20027;-72
2021/05/20 01:25:36;;;;;;;4.53;1.58;;;;;;;14.26;59.72;100022.97;5012788;28;20036;-72
2021/05/20 01:28:04;;;;;;;2.55;1.52;;;;;;;14.13;60.10;100025.31;5012797;28;20029;-72
2021/05/20 01:30:36;;;;;;;4.82;2.60;;;;;;;14.18;60.42;100029.75;5012812;28;20033;-72
2021/05/20 01:33:09;;;;;;;3.28;1.50;;;;;;;14.05;60.45;100044.03;5012700;28;20018;-71
2021/05/20 01:35:35;;;;;;;3.47;1.45;;;;;;;14.14;60.08;100036.09;5012697;28;20117;-72
2021/05/20 01:41:06;;;;;;;2.58;1.00;;;;;;;13.97;59.72;100024.81;5014191;28;20034;-72
2021/05/20 01:43:46;;;;;;;1.90;1.17;;;;;;;13.95;59.78;100022.38;5012485;28;20045;-72
2021/05/20 01:46:11;;;;;;;6.80;1.48;;;;;;;14.10;58.68;100018.50;5012591;28;20113;-72
2021/05/20 01:48:38;;;;;;;2.33;1.00;;;;;;;14.08;58.42;100020.88;5012542;28;20128;-72
2021/05/20 01:51:13;;;;;;;2.17;1.23;;;;;;;14.03;58.03;100018.47;5012583;28;20030;-71
2021/05/20 01:53:41;;;;;;;2.35;1.08;;;;;;;13.95;57.74;100022.38;5012552;28;20029;-72
2021/05/20 01:56:14;;;;;;;2.58;0.80;;;;;;;13.92;57.70;100000.81;5012031;28;20434;-72
2021/05/20 01:58:40;;;;;;;1.30;0.98;;;;;;;13.94;57.21;100018.00;5012971;28;20021;-72
2021/05/20 02:01:05;;;;;;;1.48;0.93;;;;;;;14.00;57.29;100012.84;5012489;28;20359;-71
2021/05/20 02:03:31;;;;;;;4.63;0.90;;;;;;;13.96;57.36;100023.22;5012377;28;20022;-72
2021/05/20 02:05:57;;;;;;;2.45;0.90;;;;;;;13.99;57.59;100028.81;5012326;28;20481;-72
2021/05/20 02:08:25;;;;;;;6.18;0.93;;;;;;;13.91;57.64;100024.38;5012758;28;20030;-72
2021/05/20 02:10:51;;;;;;;3.10;0.95;;;;;;;13.83;57.37;100025.50;5012440;28;20029;-72
2021/05/20 02:13:17;;;;;;;1.60;1.20;;;;;;;13.94;56.60;100029.19;5013256;28;20026;-72
2021/05/20 02:15:43;;;;;;;0.77;0.70;;;;;;;13.97;56.38;100019.22;5014909;28;20116;-72
2021/05/20 02:18:09;;;;;;;1.35;0.95;;;;;;;13.98;55.86;100021.63;5016071;28;20053;-73
2021/05/20 02:20:35;;;;;;;0.95;0.63;;;;;;;13.88;55.58;100034.34;5016314;28;20475;-72
2021/05/20 02:23:02;;;;;;;2.38;1.00;;;;;;;13.95;55.24;100033.56;5017255;28;20022;-72
2021/05/20 02:25:28;;;;;;;0.85;0.70;;;;;;;14.02;54.74;100042.03;5016569;28;20057;-72
2021/05/20 02:27:53;;;;;;;1.00;0.75;;;;;;;13.92;54.97;100042.75;5015857;28;20424;-72
2021/05/20 02:30:22;;;;;;;1.80;1.10;;;;;;;13.78;53.81;100037.06;5016462;28;20045;-72
2021/05/20 02:32:47;;;;;;;0.85;0.70;;;;;;;13.94;53.84;100040.38;5015779;28;20026;-72
2021/05/20 02:35:13;;;;;;;0.88;0.75;;;;;;;13.82;53.50;100041.50;5015711;28;20041;-72
2021/05/20 02:37:40;;;;;;;0.98;0.98;;;;;;;13.77;54.58;100038.25;5015881;28;20028;-72
2021/05/20 02:40:08;;;;;;;2.88;1.77;;;;;;;13.76;54.51;100040.25;5015635;28;20457;-72
2021/05/20 02:42:35;;;;;;;12.40;8.02;;;;;;;13.77;54.05;100038.25;5015542;28;20491;-72
2021/05/20 02:45:01;;;;;;;4.10;3.63;;;;;;;13.66;53.46;100037.38;5016147;28;20080;-72
2021/05/20 02:47:27;;;;;;;4.38;3.42;;;;;;;13.71;53.90;100042.59;5015491;28;20096;-71
2021/05/20 02:49:52;;;;;;;3.25;2.95;;;;;;;13.69;53.50;100047.75;5015728;28;20065;-72
2021/05/20 02:52:21;;;;;;;6.13;4.38;;;;;;;13.52;53.61;100044.44;5015491;28;20029;-72
2021/05/20 02:54:47;;;;;;;11.98;9.73;;;;;;;13.75;53.14;100035.06;5015039;28;20104;-73
2021/05/20 02:57:13;;;;;;;3.72;3.42;;;;;;;13.74;52.47;100044.59;5015600;28;20029;-72
2021/05/20 02:59:38;;;;;;;3.63;2.67;;;;;;;13.70;52.95;100044.59;5015475;28;20467;-71
2021/05/20 03:02:06;;;;;;;2.00;1.80;;;;;;;13.70;52.98;100066.97;5016496;28;20022;-72
2021/05/20 03:04:38;;;;;;;1.30;1.20;;;;;;;13.61;52.92;100064.47;5015047;28;20042;-72
2021/05/20 03:07:06;;;;;;;3.90;1.65;;;;;;;13.61;53.63;100070.06;5015894;28;20112;-72
2021/05/20 03:09:32;;;;;;;2.15;1.10;;;;;;;13.66;53.00;100076.50;5015932;28;20034;-72
2021/05/20 03:11:59;;;;;;;0.65;0.65;;;;;;;13.68;52.56;100076.91;5015277;28;20036;-72
2021/05/20 03:14:26;;;;;;;0.60;0.60;;;;;;;13.70;52.38;100071.75;5015062;28;20022;-71
2021/05/20 03:16:52;;;;;;;1.38;1.23;;;;;;;13.66;52.83;100074.50;5014894;28;20022;-71
2021/05/20 03:19:19;;;;;;;1.10;1.02;;;;;;;13.73;51.75;100071.75;5015046;28;20204;-72
2021/05/20 03:21:45;;;;;;;1.40;1.20;;;;;;;13.62;52.17;100080.06;5014835;28;20029;-72
2021/05/20 03:24:11;;;;;;;1.63;1.52;;;;;;;13.69;52.17;100086.91;5014789;28;20112;-71
2021/05/20 03:26:43;;;;;;;3.13;1.67;;;;;;;13.67;52.49;100083.69;5014821;28;20112;-71
2021/05/20 03:29:08;;;;;;;3.55;1.33;;;;;;;13.83;52.14;100081.44;5014770;28;20403;-71
2021/05/20 03:31:34;;;;;;;6.00;1.73;;;;;;;13.79;51.60;100087.00;5014145;28;20024;-72
2021/05/20 03:33:59;;;;;;;1.35;1.08;;;;;;;13.85;51.51;100091.06;5014669;28;20022;-72
2021/05/20 03:36:25;;;;;;;2.35;0.93;;;;;;;13.91;51.18;100083.13;5014504;28;20112;-72
2021/05/20 03:38:52;;;;;;;2.88;1.08;;;;;;;13.97;50.89;100103.94;5014760;28;20036;-72
2021/05/20 03:41:18;;;;;;;2.50;2.10;;;;;;;13.76;50.89;100071.00;5014448;28;20544;-72
2021/05/20 03:43:44;;;;;;;1.33;1.08;;;;;;;13.97;50.03;100078.75;5014316;28;20117;-72
2021/05/20 03:46:11;;;;;;;1.70;0.70;;;;;;;14.03;50.14;100094.00;5014645;28;20037;-72
2021/05/20 03:48:36;;;;;;;2.40;1.08;;;;;;;13.92;50.80;100095.91;5014407;28;20030;-72
2021/05/20 03:51:02;;;;;;;1.95;1.70;;;;;;;13.97;50.88;100103.94;5014536;28;20487;-72
2021/05/20 03:53:32;;;;;;;2.03;1.30;;;;;;;14.06;50.70;100098.81;5014267;28;20035;-72
2021/05/20 03:56:00;;;;;;;1.08;1.00;;;;;;;14.01;50.34;100107.56;5014057;28;20142;-71
2021/05/20 03:58:30;;;;;;;1.73;1.25;;;;;;;14.01;50.79;100117.94;5013837;28;20033;-72
2021/05/20 04:00:55;;;;;;;1.88;1.38;;;;;;;14.15;50.03;100120.84;5014085;28;20439;-72
2021/05/20 04:03:53;;;;;;;2.83;1.95;;;;;;;14.22;49.43;100114.50;5014083;28;20109;-71
2021/05/20 04:06:14;;;;;;;0.57;0.57;;;;;;;14.35;48.91;100121.38;5013311;28;20041;-72
2021/05/20 04:08:40;;;;;;;0.57;0.57;;;;;;;14.40;48.57;100126.63;5013965;28;20364;-71
2021/05/20 04:11:11;;;;;;;2.65;0.70;;;;;;;14.38;49.25;100129.81;5014140;28;20033;-72
2021/05/20 04:13:39;;;;;;;0.60;0.60;;;;;;;14.36;49.35;100132.19;5013826;28;20456;-72
2021/05/20 04:16:06;;;;;;;1.10;0.52;;;;;;;14.30;49.87;100132.94;5013870;28;20030;-72
2021/05/20 04:18:32;;;;;;;1.38;0.63;;;;;;;14.30;49.65;100133.75;5013708;28;20465;-72
2021/05/20 04:20:59;;;;;;;0.65;0.60;;;;;;;14.46;49.69;100136.25;5013938;28;20030;-72
2021/05/20 04:23:26;;;;;;;0.45;0.45;;;;;;;14.44;49.24;100138.66;5013952;28;20018;-72
2021/05/20 04:25:52;;;;;;;0.95;0.40;;;;;;;14.51;48.97;100146.31;5013920;28;20125;-73
2021/05/20 04:28:24;;;;;;;1.00;0.60;;;;;;;14.40;49.02;100140.63;5014161;28;20464;-72
2021/05/20 04:30:50;;;;;;;0.40;0.40;;;;;;;14.26;49.17;100132.13;5013578;28;20037;-73
2021/05/20 04:33:15;;;;;;;0.50;0.50;;;;;;;14.40;49.86;100160.22;5013719;28;20026;-72
2021/05/20 04:35:47;;;;;;;2.58;0.75;;;;;;;14.46;49.61;100146.66;5013325;28;20052;-72
2021/05/20 04:38:13;;;;;;;0.70;0.70;;;;;;;14.68;48.71;100160.41;5013449;28;20530;-73
2021/05/20 04:40:39;;;;;;;0.70;0.50;;;;;;;14.77;48.25;100167.66;5013387;28;20021;-74
2021/05/20 04:43:08;;;;;;;1.35;0.63;;;;;;;14.79;48.40;100162.47;5014925;28;20105;-73
2021/05/20 04:45:34;;;;;;;0.45;0.45;;;;;;;14.80;48.03;100161.28;5013348;28;20025;-73
2021/05/20 04:48:01;;;;;;;0.50;0.50;;;;;;;14.71;48.58;100158.03;5013293;28;20079;-72
2021/05/20 04:50:30;;;;;;;2.10;0.52;;;;;;;14.74;48.68;100158.03;5013515;28;20029;-73
2021/05/20 04:52:55;;;;;;;3.90;1.00;;;;;;;14.96;48.85;100158.94;5013924;28;20171;-73
2021/05/20 04:55:21;;;;;;;0.68;0.60;;;;;;;14.98;48.85;100162.19;5013069;28;20077;-73
2021/05/20 04:57:57;;;;;;;0.60;0.60;;;;;;;14.99;49.23;100171.38;5013084;28;20107;-73
2021/05/20 05:00:23;;;;;;;2.30;0.77;;;;;;;14.98;48.95;100166.97;5013194;28;20030;-72
2021/05/20 05:02:49;;;;;;;1.65;0.85;;;;;;;15.08;48.23;100175.44;5012994;28;20029;-73
2021/05/20 05:05:32;;;;;;;3.53;0.80;;;;;;;15.14;48.13;100182.25;5013587;28;20033;-73
2021/05/20 05:07:57;;;;;;;5.57;0.82;;;;;;;15.12;48.34;100173.44;5013937;28;20018;-73
2021/05/20 05:10:23;;;;;;;4.80;0.70;;;;;;;15.20;48.01;100179.88;5012975;28;20457;-73
2021/05/20 05:12:50;;;;;;;3.85;1.17;;;;;;;15.02;48.32;100168.59;5012855;28;20476;-73
2021/05/20 05:15:15;;;;;;;3.47;1.83;;;;;;;15.23;48.37;100193.09;5012688;28;20022;-72
2021/05/20 05:17:41;;;;;;;1.48;1.10;;;;;;;15.24;48.04;100191.13;5012658;28;20026;-73
2021/05/20 05:20:08;;;;;;;2.03;1.25;;;;;;;15.41;47.86;100196.78;5012705;28;20453;-73
2021/05/20 05:22:34;;;;;;;1.50;0.80;;;;;;;15.49;47.65;100197.59;5012657;28;20100;-73
2021/05/20 05:24:59;;;;;;;2.83;1.30;;;;;;;15.63;46.86;100191.25;5012968;28;20442;-73
2021/05/20 05:27:25;;;;;;;3.10;1.10;;;;;;;15.65;46.84;100188.84;5012950;28;20064;-73
2021/05/20 05:29:51;;;;;;;2.20;0.80;;;;;;;15.63;45.89;100192.06;5013273;28;20453;-73
2021/05/20 05:32:16;;;;;;;2.60;0.90;;;;;;;15.67;45.63;100212.50;5012788;28;20034;-73
2021/05/20 05:34:42;;;;;;;2.45;1.10;;;;;;;15.67;44.99;100208.91;5012191;28;20026;-74
2021/05/20 05:37:08;;;;;;;2.30;0.90;;;;;;;15.80;45.55;100212.13;5012410;28;20092;-73
2021/05/20 05:39:33;;;;;;;1.55;0.85;;;;;;;15.83;45.08;100205.75;5012443;28;20080;-73
2021/05/20 05:41:59;;;;;;;2.35;1.00;;;;;;;15.84;44.35;100215.75;5012133;28;20357;-73
2021/05/20 05:44:25;;;;;;;1.70;0.90;;;;;;;15.90;43.98;100219.78;5011997;28;20464;-73
2021/05/20 05:46:51;;;;;;;1.00;0.80;;;;;;;16.03;43.91;100220.19;5012043;28;20032;-73
2021/05/20 05:49:20;;;;;;;2.03;0.98;;;;;;;16.00;44.40;100218.19;5012178;28;20121;-73
2021/05/20 05:51:50;;;;;;;0.98;0.88;;;;;;;16.16;43.67;100225.00;5012138;28;20021;-74
2021/05/20 05:54:15;;;;;;;3.13;0.70;;;;;;;16.32;43.41;100221.00;5014484;28;20038;-73
2021/05/20 05:56:41;;;;;;;2.20;0.88;;;;;;;16.30;42.87;100224.22;5015954;28;20072;-73
2021/05/20 05:59:07;;;;;;;7.03;1.30;;;;;;;16.39;42.23;100226.63;5015763;28;20029;-73
2021/05/20 06:01:33;;;;;;;3.15;0.70;;;;;;;16.69;41.98;100224.19;5016134;28;20022;-73
2021/05/20 06:04:00;;;;;;;5.03;1.10;;;;;;;17.01;41.09;100224.16;5015720;28;20026;-74
2021/05/20 06:06:25;;;;;;;0.68;0.50;;;;;;;17.02;39.80;100236.22;5015836;28;20030;-73
2021/05/20 06:08:51;;;;;;;0.65;0.65;;;;;;;17.17;40.02;100236.97;5015669;28;20038;-74
2021/05/20 06:11:17;;;;;;;1.67;0.85;;;;;;;17.05;40.33;100229.78;5015857;28;20056;-73
2021/05/20 06:13:42;;;;;;;2.25;0.90;;;;;;;17.41;40.15;100235.25;5015560;28;20033;-73
2021/05/20 06:16:08;;;;;;;1.75;0.88;;;;;;;17.71;38.51;100227.09;5015039;28;20038;-73
2021/05/20 06:18:33;;;;;;;1.42;1.02;;;;;;;18.21;37.71;100237.25;5014635;28;20034;-74
2021/05/20 06:20:59;;;;;;;2.70;1.35;;;;;;;18.34;37.66;100244.00;5015147;28;20034;-74
2021/05/20 06:23:27;;;;;;;1.92;1.00;;;;;;;17.88;38.96;100242.28;5014908;28;20380;-74
2021/05/20 06:25:53;;;;;;;2.75;1.80;;;;;;;17.88;38.76;100247.91;5014573;28;20021;-73
2021/05/20 06:28:19;;;;;;;1.30;0.90;;;;;;;18.04;38.81;100247.41;5015319;28;20030;-73
2021/05/20 06:30:44;;;;;;;1.10;1.00;;;;;;;18.29;38.85;100245.25;5015221;28;20107;-73
2021/05/20 06:33:10;;;;;;;1.63;0.93;;;;;;;18.45;38.01;100249.53;5015150;28;20030;-76
2021/05/20 06:35:35;;;;;;;1.92;1.20;;;;;;;18.78;38.17;100254.50;5015343;28;20038;-76
2021/05/20 06:38:01;;;;;;;1.75;0.90;;;;;;;19.41;36.40;100259.88;5015064;28;20030;-75
2021/05/20 06:40:27;;;;;;;2.35;0.98;;;;;;;20.51;35.02;100265.25;4999031;28;20587;-73
2021/05/20 06:42:52;;;;;;;2.35;1.10;;;;;;;21.60;33.21;100266.47;5014904;28;20028;-74
2021/05/20 06:45:18;;;;;;;1.27;1.00;;;;;;;21.62;35.72;100261.97;5014000;28;20030;-75
2021/05/20 06:47:43;;;;;;;1.80;1.20;;;;;;;21.86;32.89;100262.66;5014794;28;20041;-74
2021/05/20 06:50:09;;;;;;;0.80;0.80;;;;;;;22.12;31.04;100274.28;5014515;28;20025;-74
2021/05/20 06:52:35;;;;;;;3.53;1.00;;;;;;;22.64;30.59;100260.06;5014325;28;20153;-74
2021/05/20 06:55:00;;;;;;;0.85;0.73;;;;;;;22.71;31.53;100262.69;5014123;28;20516;-74
2021/05/20 06:57:30;;;;;;;2.72;1.27;;;;;;;23.61;29.40;100246.09;5014604;28;20093;-75
2021/05/20 07:00:02;;;;;;;1.50;1.00;;;;;;;24.17;28.77;100260.59;5014427;28;20030;-75
2021/05/20 07:02:29;;;;;;;1.02;0.70;;;;;;;24.95;26.80;100265.75;5014304;28;20041;-74
2021/05/20 07:04:56;;;;;;;1.92;1.38;;;;;;;25.25;26.25;100260.69;5013501;28;20042;-75
2021/05/20 07:07:22;;;;;;;1.02;0.93;;;;;;;25.45;25.45;100271.72;5014307;28;20448;-75
2021/05/20 07:09:48;;;;;;;0.82;0.75;;;;;;;24.80;26.66;100273.19;5014424;28;20092;-75
2021/05/20 07:12:14;;;;;;;1.05;0.70;;;;;;;25.60;24.72;100276.44;5014353;28;20064;-75
2021/05/20 07:14:40;;;;;;;0.77;0.70;;;;;;;24.11;25.53;100273.78;5014392;28;20022;-75
2021/05/20 07:17:07;;;;;;;0.60;0.60;;;;;;;24.72;27.35;100278.34;5014063;28;20049;-74
2021/05/20 07:19:33;;;;;;;1.63;0.63;;;;;;;24.63;24.67;100274.59;5014298;28;20037;-74
2021/05/20 07:21:58;;;;;;;1.10;0.88;;;;;;;24.45;26.07;100270.31;5014126;28;20543;-75
2021/05/20 07:24:24;;;;;;;2.38;0.77;;;;;;;24.64;25.95;100270.50;5013918;28;20026;-75
2021/05/20 07:26:50;;;;;;;4.13;0.68;;;;;;;24.47;25.20;100270.63;5014087;28;20376;-75
2021/05/20 07:29:15;;;;;;;1.20;0.70;;;;;;;24.54;24.68;100273.22;5013667;28;20038;-76
2021/05/20 07:31:41;;;;;;;3.60;0.70;;;;;;;24.25;25.02;100272.56;5013994;28;20346;-75
2021/05/20 07:34:08;;;;;;;1.02;0.70;;;;;;;24.51;24.51;100279.06;5013860;28;20033;-75
2021/05/20 07:36:33;;;;;;;0.68;0.68;;;;;;;23.86;24.90;100280.22;5014135;28;20124;-75
2021/05/20 07:38:59;;;;;;;0.90;0.85;;;;;;;24.18;29.63;100284.13;5014092;28;20480;-75
2021/05/20 07:41:27;;;;;;;0.88;0.60;;;;;;;25.24;25.65;100279.00;5013767;28;20032;-76
2021/05/20 07:43:54;;;;;;;4.82;0.90;;;;;;;25.30;24.32;100277.97;5013767;28;20022;-75
2021/05/20 07:46:19;;;;;;;2.78;1.58;;;;;;;24.00;25.18;100270.47;5013646;28;20025;-75
2021/05/20 07:48:45;;;;;;;2.47;1.45;;;;;;;23.93;25.85;100276.41;5013720;28;20094;-76
2021/05/20 07:51:11;;;;;;;1.13;1.02;;;;;;;24.95;25.66;100267.81;5013482;28;20045;-76
2021/05/20 07:53:36;;;;;;;2.88;1.23;;;;;;;24.16;25.49;100276.06;5013770;28;20372;-76
2021/05/20 07:56:03;;;;;;;1.30;0.90;;;;;;;23.55;25.63;100287.66;5013131;28;20100;-78
2021/05/20 07:58:29;;;;;;;1.23;0.93;;;;;;;22.27;26.98;100286.09;5013479;28;20033;-75
2021/05/20 08:00:57;;;;;;;1.58;0.77;;;;;;;22.04;26.71;100284.13;5013644;28;20129;-75
2021/05/20 08:03:30;;;;;;;0.95;0.70;;;;;;;22.05;26.74;100291.38;5013328;28;20017;-75
2021/05/20 08:06:21;;;;;;;2.60;0.80;;;;;;;22.67;25.86;100281.84;5013687;28;20481;-75
2021/05/20 08:11:21;;;;;;;3.35;0.40;;;;;;;22.23;26.61;100286.94;5014230;28;20029;-75
2021/05/20 08:13:47;;;;;;;0.80;0.63;;;;;;;22.00;26.63;100255.91;5013585;28;20061;-75
2021/05/20 08:16:13;;;;;;;0.95;0.68;;;;;;;22.63;26.18;100286.78;5013005;28;20029;-75
2021/05/20 08:18:39;;;;;;;0.95;0.82;;;;;;;23.24;25.71;100288.88;5013252;28;20022;-75
2021/05/20 08:21:06;;;;;;;1.23;0.50;;;;;;;24.12;25.24;100283.09;5013374;28;20068;-75
2021/05/20 08:23:33;;;;;;;0.50;0.50;;;;;;;23.81;24.20;100303.53;5012993;28;20476;-75
2021/05/20 08:25:59;;;;;;;0.30;0.30;;;;;;;23.22;23.85;100305.56;5014561;28;20514;-75
2021/05/20 08:28:25;;;;;;;1.08;0.38;;;;;;;22.82;24.95;100298.50;5012994;28;20083;-75
2021/05/20 08:30:51;;;;;;;0.63;0.60;;;;;;;23.12;25.09;100305.88;5013093;28;20033;-75
2021/05/20 08:33:16;;;;;;;0.40;0.40;;;;;;;23.27;25.06;100302.16;5013021;28;20097;-75
2021/05/20 08:35:42;;;;;;;0.63;0.40;;;;;;;23.44;24.24;100314.31;5012894;28;20030;-75
2021/05/20 08:38:07;;;;;;;0.40;0.40;;;;;;;22.27;26.11;100305.91;4996506;28;20036;-74
2021/05/20 08:40:33;;;;;;;0.82;0.52;;;;;;;22.04;26.67;100315.28;5012812;28;20025;-75
2021/05/20 08:42:59;;;;;;;0.90;0.50;;;;;;;21.92;27.34;100303.41;5012809;28;20025;-75
2021/05/20 08:45:30;;;;;;;1.23;0.52;;;;;;;22.06;26.59;100301.50;5014157;28;20026;-74
2021/05/20 08:47:57;;;;;;;1.42;0.60;;;;;;;21.91;26.91;100309.50;5013085;28;20073;-75
2021/05/20 08:50:25;;;;;;;0.80;0.55;;;;;;;22.40;26.66;100312.47;5012530;28;20026;-73
2021/05/20 08:52:51;;;;;;;1.27;0.50;;;;;;;22.95;26.61;100302.22;5012692;28;20022;-74
2021/05/20 08:55:20;;;;;;;1.45;0.57;;;;;;;23.23;25.70;100314.88;5012242;28;20056;-74
2021/05/20 08:57:46;;;;;;;1.42;0.65;;;;;;;23.91;25.26;100313.75;5012301;28;20026;-75
2021/05/20 09:00:15;;;;;;;2.35;0.85;;;;;;;24.52;24.53;100326.16;5012507;28;20398;-75
2021/05/20 09:02:41;;;;;;;1.95;0.70;;;;;;;24.60;24.12;100315.31;5012329;28;20113;-75
2021/05/20 09:07:56;;;;;;;3.63;0.60;;;;;;;24.78;24.18;100321.25;5013421;28;20029;-73
2021/05/20 09:10:25;;;;;;;3.40;0.80;;;;;;;25.31;23.05;100304.41;5013495;28;20022;-75
2021/05/20 09:13:00;;;;;;;1.27;0.80;;;;;;;24.99;23.56;100331.91;5012310;28;20464;-74
2021/05/20 09:15:25;;;;;;;1.83;0.70;;;;;;;24.60;24.37;100303.94;5012036;28;20030;-74
2021/05/20 09:17:52;;;;;;;2.35;0.70;;;;;;;23.13;26.68;100333.00;5012243;28;20021;-75
2021/05/20 09:20:19;;;;;;;1.35;0.68;;;;;;;23.46;26.13;100339.41;5012232;28;20065;-74
2021/05/20 09:22:45;;;;;;;1.67;0.80;;;;;;;23.14;27.07;100345.94;5012152;28;20024;-75
2021/05/20 09:25:11;;;;;;;1.05;0.85;;;;;;;23.02;26.99;100335.31;5011928;28;20396;-74
2021/05/20 09:27:42;;;;;;;1.13;0.60;;;;;;;24.18;25.10;100324.75;5011538;28;20021;-75
2021/05/20 09:30:11;;;;;;;0.90;0.70;;;;;;;23.02;26.63;100335.31;5012201;28;20032;-74
2021/05/20 09:32:40;;;;;;;0.65;0.50;;;;;;;23.94;26.32;100324.25;5012339;28;20025;-74
2021/05/20 09:35:06;;;;;;;0.75;0.60;;;;;;;23.55;25.83;100327.41;5012154;28;20033;-75
2021/05/20 09:37:50;;;;;;;1.30;0.82;;;;;;;23.49;25.53;100322.28;5012047;28;20487;-74
2021/05/20 09:40:19;;;;;;;2.33;0.70;;;;;;;23.28;26.15;100325.69;5012189;28;20483;-75
2021/05/20 09:42:47;;;;;;;2.72;1.00;;;;;;;22.79;27.28;100322.88;5011883;28;20024;-74
2021/05/20 09:45:15;;;;;;;1.10;0.98;;;;;;;22.73;26.90;100330.31;5012233;28;20117;-74
2021/05/20 09:47:41;;;;;;;3.88;0.77;;;;;;;23.74;26.83;100334.97;5028201;28;20032;-74
2021/05/20 09:50:22;;;;;;;1.48;0.90;;;;;;;24.18;26.36;100329.59;5011950;28;20033;-75
2021/05/20 09:52:49;;;;;;;0.85;0.80;;;;;;;24.08;24.66;100330.75;5012754;28;20022;-73
2021/05/20 09:55:26;;;;;;;1.45;0.70;;;;;;;23.73;25.86;100324.88;5011481;28;20050;-74
2021/05/20 09:57:56;;;;;;;2.53;1.10;;;;;;;22.93;25.69;100330.25;5012673;28;20022;-75
2021/05/20 10:00:27;;;;;;;1.10;1.00;;;;;;;23.11;26.05;100321.28;4995799;28;20321;-74
2021/05/20 10:03:20;;;;;;;1.38;1.15;;;;;;;22.23;24.98;100340.78;5012716;28;20408;-74
2021/05/20 10:05:48;;;;;;;0.60;0.60;;;;;;;22.18;26.43;100327.16;5009117;28;20080;-75
2021/05/20 10:08:18;;;;;;;1.10;0.93;;;;;;;23.09;26.04;100335.13;5011600;28;20026;-74
2021/05/20 10:10:46;;;;;;;0.93;0.85;;;;;;;23.65;24.22;100335.66;5011812;28;20054;-76
2021/05/20 10:13:23;;;;;;;0.70;0.70;;;;;;;24.17;25.11;100328.03;5011798;28;20022;-74
2021/05/20 10:15:50;;;;;;;0.55;0.55;;;;;;;24.31;24.46;100334.06;5011907;28;20041;-74
2021/05/20 10:18:18;;;;;;;0.68;0.60;;;;;;;24.34;23.38;100343.72;5011674;28;20022;-74
2021/05/20 10:20:46;;;;;;;0.60;0.52;;;;;;;24.47;22.93;100336.03;5012737;28;20030;-74
2021/05/20 10:23:24;;;;;;;1.00;0.77;;;;;;;24.97;23.22;100342.94;5011548;28;20033;-74
2021/05/20 10:25:52;;;;;;;0.90;0.70;;;;;;;25.27;22.48;100335.03;5011426;28;20056;-74
2021/05/20 10:28:19;;;;;;;1.80;0.90;;;;;;;25.56;22.44;100340.50;5011463;28;20025;-75
2021/05/20 10:30:47;;;;;;;1.23;1.13;;;;;;;25.83;22.15;100332.22;5012831;28;20096;-74
2021/05/20 10:33:15;;;;;;;2.28;0.82;;;;;;;25.88;22.57;100336.50;5011533;28;20026;-75
2021/05/20 10:35:52;;;;;;;0.70;0.70;;;;;;;25.80;21.66;100333.13;5011772;28;20473;-73
2021/05/20 10:38:35;;;;;;;1.10;0.90;;;;;;;26.57;21.74;100330.53;5011394;28;20029;-74
2021/05/20 10:41:12;;;;;;;1.55;0.82;;;;;;;26.43;21.06;100328.28;5014591;28;20416;-75
2021/05/20 10:43:42;;;;;;;0.77;0.77;;;;;;;26.24;21.59;100323.72;5014767;28;20488;-74
2021/05/20 10:46:11;;;;;;;0.47;0.47;;;;;;;25.38;21.70;100317.56;5014833;28;20407;-74
2021/05/20 10:48:36;;;;;;;1.38;0.63;;;;;;;26.13;21.73;100322.06;5015064;28;20025;-74
2021/05/20 10:51:12;;;;;;;5.22;0.80;;;;;;;26.96;20.69;100307.38;5014703;28;20429;-74
2021/05/20 10:53:38;;;;;;;2.03;0.90;;;;;;;27.30;20.21;100318.53;5014788;28;20034;-75
2021/05/20 10:56:04;;;;;;;4.05;1.05;;;;;;;26.68;20.34;100310.13;5014224;28;20132;-74
2021/05/20 10:58:35;;;;;;;2.15;1.52;;;;;;;27.11;20.97;100314.88;5014837;28;20025;-74
2021/05/20 11:01:00;;;;;;;1.38;0.80;;;;;;;26.74;20.88;100318.88;5014555;28;20030;-74
2021/05/20 11:03:48;;;;;;;1.33;0.80;;;;;;;26.15;21.86;100326.50;5014808;28;20084;-74
2021/05/20 11:06:14;;;;;;;0.73;0.73;;;;;;;26.72;21.31;100321.41;5014512;28;20499;-74
2021/05/20 11:08:52;;;;;;;0.95;0.90;;;;;;;26.55;20.92;100310.25;5014692;28;20034;-74
2021/05/20 11:11:29;;;;;;;0.77;0.50;;;;;;;26.32;21.17;100327.91;5014473;28;20120;-74
2021/05/20 11:14:03;;;;;;;0.95;0.68;;;;;;;25.79;21.44;100325.84;5013618;28;20117;-74
2021/05/20 11:16:37;;;;;;;;;;;;;;;26.08;21.46;100325.53;5014783;28;20033;-74
2021/05/20 11:19:19;;;;;;;1.75;0.68;;;;;;;26.21;21.70;100316.91;5013850;28;19911;-74
2021/05/20 11:22:07;;;;;;;0.68;0.50;;;;;;;24.49;22.12;100316.47;5013297;28;20029;-74
2021/05/20 11:24:38;;;;;;;0.80;0.63;;;;;;;24.43;23.21;100312.59;5013803;28;20113;-75
2021/05/20 11:27:03;;;;;;;3.00;0.80;;;;;;;24.66;23.79;100310.66;5013560;28;20111;-74
2021/05/20 11:29:34;;;;;;;1.75;0.85;;;;;;;24.50;24.34;100323.78;5014108;28;20448;-75
2021/05/20 11:32:25;;;;;;;0.80;0.60;;;;;;;24.65;24.08;100311.91;5013954;28;20087;-75
2021/05/20 11:37:25;;;;;;;1.65;0.60;;;;;;;25.09;23.51;100324.28;5015265;28;20061;-75
2021/05/20 11:39:50;;;;;;;0.60;0.60;;;;;;;25.31;23.16;100315.78;5014056;28;20112;-77